createdAt,value
2023-01-22T00:01:18.040Z,2.49
2023-01-22T00:03:46.842Z,2.48
2023-01-22T00:06:13.713Z,2.65
2023-01-22T00:08:40.236Z,2.50
2023-01-22T00:11:06.712Z,2.37
2023-01-22T00:13:33.266Z,2.40
2023-01-22T00:16:00.038Z,2.49
2023-01-22T00:18:26.829Z,2.65
2023-01-22T00:20:53.960Z,2.68
2023-01-22T00:23:20.839Z,2.71
2023-01-22T00:25:47.539Z,2.53
2023-01-22T00:28:14.286Z,2.50
2023-01-22T00:30:40.735Z,2.55
2023-01-22T00:33:07.185Z,2.48
2023-01-22T00:35:35.388Z,2.51
2023-01-22T00:38:01.864Z,2.67
2023-01-22T00:40:28.386Z,2.66
2023-01-22T00:42:54.829Z,2.58
2023-01-22T00:45:21.358Z,2.71
2023-01-22T00:47:47.852Z,2.72
2023-01-22T00:50:14.347Z,2.68
2023-01-22T00:52:40.812Z,2.73
2023-01-22T00:55:07.503Z,2.65
2023-01-22T00:57:34.511Z,2.61
2023-01-22T01:00:01.039Z,2.50
2023-01-22T01:02:29.881Z,2.53
2023-01-22T01:04:56.902Z,2.55
2023-01-22T01:07:23.681Z,2.64
2023-01-22T01:09:50.641Z,2.59
2023-01-22T01:12:17.159Z,2.52
2023-01-22T01:14:43.691Z,2.52
2023-01-22T01:17:10.138Z,2.58
2023-01-22T01:19:36.560Z,2.61
2023-01-22T01:22:03.298Z,2.72
2023-01-22T01:24:29.767Z,2.73
2023-01-22T01:26:56.203Z,2.59
2023-01-22T01:29:22.667Z,2.60
2023-01-22T01:31:53.207Z,2.71
2023-01-22T01:34:19.822Z,2.79
2023-01-22T01:36:49.425Z,2.83
2023-01-22T01:39:16.506Z,2.75
2023-01-22T01:41:43.081Z,2.82
2023-01-22T01:44:17.135Z,2.81
2023-01-22T01:46:54.222Z,2.80
2023-01-22T01:49:25.768Z,2.73
2023-01-22T01:51:54.459Z,2.99
2023-01-22T01:54:20.917Z,2.56
2023-01-22T01:56:51.976Z,2.75
2023-01-22T01:59:20.171Z,2.81
2023-01-22T02:01:49.637Z,2.82
2023-01-22T02:04:16.956Z,2.84
2023-01-22T02:06:43.421Z,2.83
2023-01-22T02:09:09.871Z,3.01
2023-01-22T02:11:36.547Z,2.53
2023-01-22T02:14:05.530Z,3.25
2023-01-22T02:16:32.033Z,3.11
2023-01-22T02:18:58.528Z,2.19
2023-01-22T02:21:36.618Z,1.74
2023-01-22T02:24:08.046Z,2.28
2023-01-22T02:26:34.946Z,1.81
2023-01-22T02:29:01.482Z,1.86
2023-01-22T02:31:30.323Z,1.53
2023-01-22T02:33:57.976Z,2.16
2023-01-22T02:36:28.124Z,1.56
2023-01-22T02:38:54.861Z,1.53
2023-01-22T02:41:21.602Z,1.42
2023-01-22T02:43:48.092Z,1.37
2023-01-22T02:46:15.001Z,1.41
2023-01-22T02:48:41.486Z,1.32
2023-01-22T02:51:08.322Z,1.67
2023-01-22T02:53:34.916Z,1.77
2023-01-22T02:56:05.576Z,1.57
2023-01-22T02:58:32.062Z,1.56
2023-01-22T03:01:06.900Z,2.03
2023-01-22T03:03:33.410Z,2.47
2023-01-22T03:05:59.911Z,1.84
2023-01-22T03:08:26.655Z,1.94
2023-01-22T03:10:57.562Z,1.73
2023-01-22T03:13:43.186Z,1.40
2023-01-22T03:16:28.574Z,1.27
2023-01-22T03:19:13.956Z,1.19
2023-01-22T03:21:43.930Z,1.25
2023-01-22T03:24:10.399Z,1.18
2023-01-22T03:26:37.628Z,1.28
2023-01-22T03:29:04.138Z,1.29
2023-01-22T03:31:30.865Z,1.25
2023-01-22T03:33:57.604Z,1.36
2023-01-22T03:36:24.354Z,1.23
2023-01-22T03:38:54.338Z,1.38
2023-01-22T03:41:24.246Z,1.68
2023-01-22T03:43:50.902Z,1.76
2023-01-22T03:46:20.719Z,1.73
2023-01-22T03:48:52.184Z,2.14
2023-01-22T03:51:19.738Z,2.04
2023-01-22T03:53:46.875Z,2.38
2023-01-22T03:56:15.163Z,2.33
2023-01-22T03:58:42.275Z,2.22
2023-01-22T04:01:14.072Z,2.32
2023-01-22T04:03:41.167Z,2.27
2023-01-22T04:06:09.082Z,2.47
2023-01-22T04:08:37.443Z,2.55
2023-01-22T04:11:04.392Z,2.46
2023-01-22T04:13:32.271Z,2.58
2023-01-22T04:15:59.692Z,2.58
2023-01-22T04:18:44.529Z,2.55
2023-01-22T04:21:27.565Z,2.71
2023-01-22T04:23:56.714Z,2.67
2023-01-22T04:26:23.997Z,2.55
2023-01-22T04:28:50.625Z,2.29
2023-01-22T04:31:20.234Z,2.70
2023-01-22T04:34:19.639Z,2.47
2023-01-22T04:37:02.279Z,2.07
2023-01-22T04:39:31.837Z,2.28
2023-01-22T04:41:59.025Z,2.32
2023-01-22T04:44:25.844Z,2.52
2023-01-22T04:46:53.022Z,2.36
2023-01-22T04:49:19.908Z,2.46
2023-01-22T04:51:46.715Z,2.58
2023-01-22T04:54:13.187Z,2.58
2023-01-22T04:56:39.616Z,2.59
2023-01-22T04:59:06.169Z,2.58
2023-01-22T05:01:32.730Z,2.40
2023-01-22T05:04:00.889Z,2.56
2023-01-22T05:06:27.807Z,2.39
2023-01-22T05:08:54.357Z,2.41
2023-01-22T05:11:20.903Z,2.49
2023-01-22T05:13:52.839Z,2.47
2023-01-22T05:16:20.243Z,2.31
2023-01-22T05:18:47.243Z,2.45
2023-01-22T05:21:14.232Z,2.75
2023-01-22T05:23:40.696Z,2.57
2023-01-22T05:26:07.342Z,2.18
2023-01-22T05:28:43.227Z,2.28
2023-01-22T05:31:37.847Z,2.10
2023-01-22T05:34:07.710Z,2.48
2023-01-22T05:36:34.321Z,2.38
2023-01-22T05:39:09.448Z,2.48
2023-01-22T05:41:36.127Z,2.43
2023-01-22T05:44:03.400Z,2.53
2023-01-22T05:46:29.969Z,2.62
2023-01-22T05:49:15.301Z,2.43
2023-01-22T05:51:41.886Z,2.48
2023-01-22T05:54:08.475Z,2.45
2023-01-22T05:56:37.799Z,2.52
2023-01-22T05:59:04.909Z,2.55
2023-01-22T06:01:31.549Z,2.47
2023-01-22T06:03:59.340Z,2.42
2023-01-22T06:06:26.308Z,2.50
2023-01-22T06:08:55.238Z,2.47
2023-01-22T06:11:23.215Z,2.95
2023-01-22T06:13:49.870Z,2.76
2023-01-22T06:16:18.603Z,2.21
2023-01-22T06:19:08.614Z,2.37
2023-01-22T06:21:40.442Z,2.66
2023-01-22T06:24:07.859Z,2.57
2023-01-22T06:26:34.283Z,2.65
2023-01-22T06:29:01.355Z,2.63
2023-01-22T06:31:28.795Z,2.66
2023-01-22T06:33:55.630Z,2.66
2023-01-22T06:36:22.247Z,2.55
2023-01-22T06:38:48.815Z,2.63
2023-01-22T06:41:19.628Z,2.55
2023-01-22T06:43:49.144Z,2.56
2023-01-22T06:46:15.791Z,2.68
2023-01-22T06:49:01.581Z,2.84
2023-01-22T06:51:29.518Z,2.72
2023-01-22T06:53:55.971Z,2.65
2023-01-22T06:56:22.507Z,2.59
2023-01-22T06:58:50.181Z,2.70
2023-01-22T07:01:16.757Z,2.78
2023-01-22T07:03:43.278Z,2.73
2023-01-22T07:06:09.848Z,2.79
2023-01-22T07:08:36.995Z,2.83
2023-01-22T07:11:05.660Z,2.59
2023-01-22T07:13:33.448Z,2.75
2023-01-22T07:16:03.560Z,2.59
2023-01-22T07:18:30.535Z,2.84
2023-01-22T07:21:03.913Z,2.66
2023-01-22T07:23:30.897Z,2.61
2023-01-22T07:25:57.591Z,2.49
2023-01-22T07:28:24.080Z,2.46
2023-01-22T07:30:50.783Z,2.22
2023-01-22T07:33:17.295Z,2.93
2023-01-22T07:35:43.753Z,2.66
2023-01-22T07:38:10.284Z,2.29
2023-01-22T07:40:36.793Z,2.27
2023-01-22T07:43:06.882Z,2.34
2023-01-22T07:45:33.475Z,2.15
2023-01-22T07:48:00.399Z,2.18
2023-01-22T07:50:28.451Z,1.93
2023-01-22T07:52:55.417Z,2.29
2023-01-22T07:55:22.276Z,2.21
2023-01-22T07:57:48.902Z,2.52
2023-01-22T08:00:18.868Z,2.54
2023-01-22T08:02:45.543Z,2.41
2023-01-22T08:05:13.691Z,2.35
2023-01-22T08:07:40.149Z,2.17
2023-01-22T08:10:06.910Z,2.25
2023-01-22T08:12:33.346Z,2.17
2023-01-22T08:14:59.885Z,2.41
2023-01-22T08:17:26.311Z,2.40
2023-01-22T08:19:52.730Z,2.56
2023-01-22T08:22:19.232Z,2.01
2023-01-22T08:24:45.699Z,2.39
2023-01-22T08:27:12.167Z,1.99
2023-01-22T08:29:38.626Z,2.19
2023-01-22T08:32:06.238Z,2.32
2023-01-22T08:34:32.868Z,2.25
2023-01-22T08:36:59.286Z,2.14
2023-01-22T08:39:25.716Z,1.98
2023-01-22T08:41:57.287Z,1.87
2023-01-22T08:44:24.428Z,2.15
2023-01-22T08:46:51.121Z,1.94
2023-01-22T08:49:18.266Z,1.81
2023-01-22T08:51:44.995Z,1.57
2023-01-22T08:54:11.443Z,1.84
2023-01-22T08:56:37.877Z,2.00
2023-01-22T08:59:06.531Z,1.88
2023-01-22T09:01:33.511Z,1.85
2023-01-22T09:04:00.108Z,2.07
2023-01-22T09:06:27.211Z,1.82
2023-01-22T09:08:54.159Z,1.77
2023-01-22T09:11:20.663Z,1.84
2023-01-22T09:13:47.115Z,1.55
2023-01-22T09:16:13.614Z,1.82
2023-01-22T09:18:40.106Z,1.94
2023-01-22T09:21:08.236Z,1.79
2023-01-22T09:23:34.718Z,1.84
2023-01-22T09:26:01.262Z,1.75
2023-01-22T09:28:27.773Z,1.78
2023-01-22T09:30:54.299Z,1.82
2023-01-22T09:33:20.730Z,1.77
2023-01-22T09:35:47.167Z,1.63
2023-01-22T09:38:14.225Z,1.72
2023-01-22T09:40:48.346Z,1.81
2023-01-22T09:43:27.164Z,1.77
2023-01-22T09:45:55.908Z,1.78
2023-01-22T09:48:22.858Z,1.76
2023-01-22T09:50:50.693Z,1.48
2023-01-22T09:53:19.823Z,1.44
2023-01-22T09:55:48.039Z,1.45
2023-01-22T09:58:16.207Z,1.58
2023-01-22T10:00:51.645Z,1.71
2023-01-22T10:03:22.772Z,1.73
2023-01-22T10:05:52.923Z,1.46
2023-01-22T10:08:28.882Z,1.46
2023-01-22T10:10:55.367Z,1.58
2023-01-22T10:13:22.979Z,1.47
2023-01-22T10:15:50.576Z,1.56
2023-01-22T10:18:20.126Z,1.96
2023-01-22T10:20:47.038Z,1.81
2023-01-22T10:23:18.449Z,1.96
2023-01-22T10:25:44.908Z,2.30
2023-01-22T10:28:12.251Z,2.32
2023-01-22T10:30:46.056Z,2.18
2023-01-22T10:33:17.250Z,2.13
2023-01-22T10:35:46.496Z,1.85
2023-01-22T10:38:21.934Z,2.12
2023-01-22T10:40:52.423Z,2.06
2023-01-22T10:43:18.867Z,2.13
2023-01-22T10:45:52.031Z,2.15
2023-01-22T10:48:18.991Z,2.19
2023-01-22T10:50:46.067Z,1.97
2023-01-22T10:53:19.603Z,2.02
2023-01-22T10:55:51.411Z,2.41
2023-01-22T10:58:18.583Z,1.87
2023-01-22T11:00:54.937Z,2.09
2023-01-22T11:03:23.196Z,2.46
2023-01-22T11:05:55.116Z,1.89
2023-01-22T11:08:21.986Z,2.15
2023-01-22T11:10:56.807Z,2.88
2023-01-22T11:13:44.317Z,2.52
2023-01-22T11:16:18.268Z,2.63
2023-01-22T11:19:01.165Z,2.59
2023-01-22T11:21:39.087Z,2.58
2023-01-22T11:24:21.183Z,2.49
2023-01-22T11:26:50.507Z,2.92
2023-01-22T11:29:35.762Z,2.84
2023-01-22T11:32:02.180Z,2.29
2023-01-22T11:34:51.879Z,2.29
2023-01-22T11:37:29.821Z,2.89
2023-01-22T11:40:14.899Z,2.91
2023-01-22T11:42:56.623Z,3.14
2023-01-22T11:45:29.410Z,3.04
2023-01-22T11:47:55.833Z,2.98
2023-01-22T11:50:33.896Z,3.06
2023-01-22T11:53:15.722Z,3.47
2023-01-22T11:55:46.901Z,3.34
2023-01-22T11:58:22.586Z,3.11
2023-01-22T12:00:58.383Z,3.27
2023-01-22T12:03:33.850Z,2.82
2023-01-22T12:06:12.928Z,2.94
2023-01-22T12:08:57.996Z,3.49
2023-01-22T12:11:32.133Z,3.26
2023-01-22T12:14:17.172Z,3.41
2023-01-22T12:17:02.258Z,3.04
2023-01-22T12:19:37.587Z,3.57
2023-01-22T12:22:04.172Z,2.71
2023-01-22T12:24:36.801Z,3.06
2023-01-22T12:27:15.728Z,3.08
2023-01-22T12:29:48.443Z,3.38
2023-01-22T12:32:19.197Z,2.85
2023-01-22T12:34:51.523Z,3.07
2023-01-22T12:37:19.970Z,3.31
2023-01-22T12:40:07.152Z,3.48
2023-01-22T12:42:52.117Z,3.27
2023-01-22T12:45:38.801Z,3.49
2023-01-22T12:48:14.731Z,3.64
2023-01-22T12:50:54.904Z,3.28
2023-01-22T12:53:23.045Z,3.32
2023-01-22T12:56:03.808Z,3.42
2023-01-22T12:58:31.756Z,3.57
2023-01-22T13:01:03.283Z,3.41
2023-01-22T13:03:31.928Z,3.01
2023-01-22T13:05:59.762Z,3.54
2023-01-22T13:08:33.992Z,3.23
2023-01-22T13:11:01.854Z,3.19
2023-01-22T13:13:39.840Z,3.50
2023-01-22T13:16:16.954Z,3.50
2023-01-22T13:18:54.070Z,3.58
2023-01-22T13:21:25.931Z,3.11
2023-01-22T13:23:56.972Z,3.04
2023-01-22T13:26:27.091Z,3.23
2023-01-22T13:29:04.728Z,3.26
2023-01-22T13:31:32.867Z,3.55
2023-01-22T13:34:05.037Z,3.55
2023-01-22T13:36:31.500Z,3.34
2023-01-22T13:38:59.258Z,2.55
2023-01-22T13:41:27.387Z,2.89
2023-01-22T13:43:53.970Z,3.43
2023-01-22T13:46:20.587Z,3.44
2023-01-22T13:48:47.357Z,3.36
2023-01-22T13:51:18.414Z,3.30
2023-01-22T13:53:53.793Z,3.33
2023-01-22T13:56:22.565Z,3.17
2023-01-22T13:58:49.689Z,3.45
2023-01-22T14:01:34.922Z,3.41
2023-01-22T14:04:04.609Z,3.15
2023-01-22T14:06:41.909Z,3.62
2023-01-22T14:09:09.458Z,3.72
2023-01-22T14:11:41.026Z,3.60
2023-01-22T14:14:17.762Z,3.78
2023-01-22T14:16:44.484Z,3.54
2023-01-22T14:19:11.061Z,3.19
2023-01-22T14:21:37.663Z,3.54
2023-01-22T14:24:04.367Z,3.83
2023-01-22T14:26:31.115Z,3.80
2023-01-22T14:28:57.563Z,3.36
2023-01-22T14:31:24.069Z,3.40
2023-01-22T14:33:50.636Z,3.55
2023-01-22T14:36:18.478Z,3.56
2023-01-22T14:38:44.914Z,3.54
2023-01-22T14:41:11.326Z,3.52
2023-01-22T14:43:37.763Z,3.51
2023-01-22T14:46:06.824Z,3.48
2023-01-22T14:48:33.384Z,3.48
2023-01-22T14:50:59.831Z,3.41
2023-01-22T14:53:26.371Z,3.41
2023-01-22T14:55:52.839Z,3.56
2023-01-22T14:58:19.272Z,3.42
2023-01-22T15:00:45.766Z,3.50
2023-01-22T15:03:12.268Z,3.47
2023-01-22T15:05:38.710Z,3.46
2023-01-22T15:08:05.241Z,3.90
2023-01-22T15:10:31.915Z,4.16
2023-01-22T15:12:58.384Z,3.69
2023-01-22T15:15:26.926Z,3.54
2023-01-22T15:17:53.948Z,3.39
2023-01-22T15:20:21.387Z,3.00
2023-01-22T15:22:49.572Z,3.26
2023-01-22T15:25:16.251Z,3.07
2023-01-22T15:27:43.839Z,2.89
2023-01-22T15:30:11.016Z,2.81
2023-01-22T15:32:37.569Z,2.85
2023-01-22T15:35:04.218Z,2.76
2023-01-22T15:37:30.618Z,3.31
2023-01-22T15:39:57.072Z,2.99
2023-01-22T15:42:23.542Z,2.75
2023-01-22T15:44:49.961Z,2.73
2023-01-22T15:47:16.376Z,2.67
2023-01-22T15:49:43.091Z,3.10
2023-01-22T15:52:09.534Z,3.44
2023-01-22T15:54:35.962Z,2.85
2023-01-22T15:57:02.422Z,2.74
2023-01-22T15:59:28.976Z,2.80
2023-01-22T16:01:55.642Z,2.78
2023-01-22T16:04:22.099Z,2.52
2023-01-22T16:06:48.800Z,2.37
2023-01-22T16:09:15.248Z,2.52
2023-01-22T16:11:41.687Z,2.37
2023-01-22T16:14:08.168Z,2.34
2023-01-22T16:16:37.964Z,2.33
2023-01-22T16:19:05.976Z,2.37
2023-01-22T16:21:32.430Z,2.34
2023-01-22T16:23:59.753Z,2.31
2023-01-22T16:26:27.448Z,2.28
2023-01-22T16:28:55.259Z,2.43
2023-01-22T16:31:23.362Z,2.44
2023-01-22T16:33:54.640Z,2.27
2023-01-22T16:36:22.035Z,2.32
2023-01-22T16:38:48.953Z,2.21
2023-01-22T16:41:24.957Z,2.26
2023-01-22T16:43:53.117Z,2.45
2023-01-22T16:46:20.593Z,2.26
2023-01-22T16:48:47.440Z,2.35
2023-01-22T16:51:16.347Z,2.43
2023-01-22T16:53:42.847Z,2.35
2023-01-22T16:56:09.506Z,2.24
2023-01-22T16:58:36.939Z,2.30
2023-01-22T17:01:04.103Z,2.62
2023-01-22T17:03:30.747Z,2.46
2023-01-22T17:05:57.296Z,2.46
2023-01-22T17:08:24.235Z,2.37
2023-01-22T17:10:50.756Z,2.31
2023-01-22T17:13:17.306Z,2.56
2023-01-22T17:15:47.176Z,2.29
2023-01-22T17:18:13.881Z,2.29
2023-01-22T17:20:41.212Z,2.21
2023-01-22T17:23:09.659Z,1.94
2023-01-22T17:25:39.290Z,1.99
2023-01-22T17:28:05.817Z,2.28
2023-01-22T17:30:32.300Z,2.05
2023-01-22T17:32:58.737Z,2.07
2023-01-22T17:35:25.306Z,2.36
2023-01-22T17:37:51.775Z,2.32
2023-01-22T17:40:18.363Z,2.23
2023-01-22T17:42:44.787Z,2.32
2023-01-22T17:45:11.464Z,2.51
2023-01-22T17:47:37.980Z,2.36
2023-01-22T17:50:04.582Z,2.33
2023-01-22T17:52:31.070Z,2.10
2023-01-22T17:54:57.547Z,2.27
2023-01-22T17:57:23.972Z,2.19
2023-01-22T17:59:51.335Z,2.13
2023-01-22T18:02:17.821Z,2.10
2023-01-22T18:04:44.327Z,2.08
2023-01-22T18:07:10.791Z,2.13
2023-01-22T18:09:37.310Z,2.10
2023-01-22T18:12:03.908Z,2.01
2023-01-22T18:14:33.919Z,1.97
2023-01-22T18:17:01.227Z,2.01
2023-01-22T18:19:28.088Z,2.01
2023-01-22T18:21:54.558Z,2.61
2023-01-22T18:24:23.089Z,2.21
2023-01-22T18:26:49.975Z,2.07
2023-01-22T18:29:16.447Z,2.20
2023-01-22T18:31:44.330Z,2.35
2023-01-22T18:34:13.410Z,2.24
2023-01-22T18:36:40.426Z,2.14
2023-01-22T18:39:08.745Z,2.09
2023-01-22T18:41:36.353Z,1.91
2023-01-22T18:44:02.954Z,2.04
2023-01-22T18:46:31.335Z,1.69
2023-01-22T18:48:59.165Z,1.61
2023-01-22T18:51:26.608Z,1.88
2023-01-22T18:53:53.327Z,1.87
2023-01-22T18:56:19.948Z,1.82
2023-01-22T18:58:48.025Z,1.91
2023-01-22T19:01:15.858Z,2.00
2023-01-22T19:03:43.402Z,2.06
2023-01-22T19:06:14.494Z,2.00
2023-01-22T19:08:42.111Z,1.93
2023-01-22T19:11:08.848Z,2.06
2023-01-22T19:13:35.599Z,2.10
2023-01-22T19:16:03.241Z,2.51
2023-01-22T19:18:29.717Z,2.62
2023-01-22T19:21:01.117Z,2.26
2023-01-22T19:23:27.590Z,2.11
2023-01-22T19:25:56.987Z,2.13
2023-01-22T19:28:23.514Z,2.05
2023-01-22T19:30:50.095Z,1.77
2023-01-22T19:33:16.546Z,1.77
2023-01-22T19:35:49.237Z,1.78
2023-01-22T19:38:15.979Z,1.76
2023-01-22T19:40:45.470Z,1.94
2023-01-22T19:43:12.162Z,1.90
2023-01-22T19:45:38.604Z,1.77
2023-01-22T19:48:06.813Z,1.60
2023-01-22T19:50:33.839Z,1.66
2023-01-22T19:53:00.363Z,1.78
2023-01-22T19:55:26.947Z,1.74
2023-01-22T19:57:57.010Z,1.77
2023-01-22T20:00:23.532Z,1.81
2023-01-22T20:02:50.048Z,1.89
2023-01-22T20:05:20.657Z,1.88
2023-01-22T20:07:47.825Z,2.14
2023-01-22T20:10:15.429Z,1.89
2023-01-22T20:12:43.248Z,1.80
2023-01-22T20:15:10.035Z,1.60
2023-01-22T20:17:37.126Z,1.63
2023-01-22T20:20:04.998Z,1.47
2023-01-22T20:22:31.647Z,1.72
2023-01-22T20:24:58.068Z,1.98
2023-01-22T20:27:24.927Z,1.85
2023-01-22T20:29:51.451Z,1.98
2023-01-22T20:32:18.492Z,2.02
2023-01-22T20:34:48.805Z,2.04
2023-01-22T20:37:15.383Z,2.09
2023-01-22T20:39:41.850Z,1.96
2023-01-22T20:42:08.305Z,2.04
2023-01-22T20:44:35.551Z,2.07
2023-01-22T20:47:02.026Z,1.93
2023-01-22T20:49:28.925Z,1.97
2023-01-22T20:51:55.455Z,2.14
2023-01-22T20:54:21.993Z,2.04
2023-01-22T20:56:48.471Z,1.84
2023-01-22T20:59:17.290Z,1.71
2023-01-22T21:01:43.997Z,1.67
2023-01-22T21:04:11.169Z,1.64
2023-01-22T21:06:39.317Z,1.68
2023-01-22T21:09:06.609Z,1.78
2023-01-22T21:11:33.902Z,1.94
2023-01-22T21:14:01.132Z,2.02
2023-01-22T21:16:31.168Z,2.07
2023-01-22T21:18:59.131Z,1.96
2023-01-22T21:21:25.893Z,1.93
2023-01-22T21:23:53.147Z,1.94
2023-01-22T21:26:22.835Z,1.86
2023-01-22T21:28:50.972Z,2.02
2023-01-22T21:31:19.119Z,2.03
2023-01-22T21:33:46.160Z,1.99
2023-01-22T21:36:13.188Z,2.05
2023-01-22T21:38:39.864Z,2.10
2023-01-22T21:41:12.464Z,2.01
2023-01-22T21:43:58.640Z,2.66
2023-01-22T21:46:25.642Z,2.20
2023-01-22T21:48:58.255Z,2.15
2023-01-22T21:51:28.643Z,1.93
2023-01-22T21:53:56.237Z,1.91
2023-01-22T21:56:23.099Z,1.99
2023-01-22T21:58:50.010Z,1.96
2023-01-22T22:01:18.228Z,1.96
2023-01-22T22:03:44.800Z,1.99
2023-01-22T22:06:11.558Z,2.06
2023-01-22T22:08:38.509Z,2.05
2023-01-22T22:11:05.172Z,2.28
2023-01-22T22:13:32.744Z,2.19
2023-01-22T22:16:00.232Z,2.06
2023-01-22T22:18:26.679Z,2.10
2023-01-22T22:20:53.201Z,1.83
2023-01-22T22:23:19.615Z,1.90
2023-01-22T22:25:47.564Z,1.97
2023-01-22T22:28:14.428Z,1.99
2023-01-22T22:30:40.889Z,2.00
2023-01-22T22:33:07.367Z,1.88
2023-01-22T22:35:33.786Z,1.82
2023-01-22T22:38:00.239Z,1.91
2023-01-22T22:40:26.689Z,1.98
2023-01-22T22:42:53.617Z,1.98
2023-01-22T22:45:20.104Z,1.78
2023-01-22T22:47:46.542Z,1.89
2023-01-22T22:50:13.035Z,2.11
2023-01-22T22:52:39.474Z,1.73
2023-01-22T22:55:06.267Z,1.77
2023-01-22T22:57:32.703Z,1.79
2023-01-22T22:59:59.714Z,1.76
2023-01-22T23:02:26.203Z,2.07
2023-01-22T23:04:52.610Z,1.90
2023-01-22T23:07:19.074Z,1.82
2023-01-22T23:09:45.536Z,1.71
2023-01-22T23:12:11.978Z,1.58
2023-01-22T23:14:38.419Z,1.52
2023-01-22T23:17:04.885Z,1.52
2023-01-22T23:19:31.618Z,1.73
2023-01-22T23:21:59.387Z,1.77
2023-01-22T23:24:25.974Z,1.95
2023-01-22T23:26:52.585Z,1.53
2023-01-22T23:29:22.456Z,1.58
2023-01-22T23:31:49.048Z,1.58
2023-01-22T23:34:16.961Z,1.68
2023-01-22T23:36:45.131Z,1.77
2023-01-22T23:39:15.925Z,1.75
2023-01-22T23:41:42.908Z,1.73
2023-01-22T23:44:09.439Z,1.90
2023-01-22T23:46:36.381Z,1.82
2023-01-22T23:49:04.446Z,1.80
2023-01-22T23:51:31.527Z,1.85
2023-01-22T23:53:58.124Z,1.76
2023-01-22T23:56:26.094Z,1.63
2023-01-22T23:58:53.758Z,1.90
